createdAt,value
2022-11-01T00:01:30.145Z,10.50
2022-11-01T00:03:33.441Z,10.50
2022-11-01T00:09:43.711Z,10.50
2022-11-01T00:15:55.662Z,10.50
2022-11-01T00:20:02.621Z,10.50
2022-11-01T00:22:05.779Z,10.50
2022-11-01T00:24:09.362Z,10.30
2022-11-01T00:26:18.182Z,10.40
2022-11-01T00:28:22.744Z,10.40
2022-11-01T00:30:26.016Z,10.30
2022-11-01T00:34:32.824Z,10.30
2022-11-01T00:36:37.476Z,10.40
2022-11-01T00:38:41.117Z,10.40
2022-11-01T00:40:44.407Z,10.30
2022-11-01T00:44:52.391Z,10.30
2022-11-01T00:48:59.409Z,10.30
2022-11-01T00:51:02.562Z,10.30
2022-11-01T00:53:05.756Z,10.20
2022-11-01T00:55:10.072Z,10.30
2022-11-01T00:57:13.336Z,10.20
2022-11-01T00:59:16.438Z,10.20
2022-11-01T01:01:21.454Z,10.10
2022-11-01T01:03:26.042Z,10.10
2022-11-01T01:05:29.444Z,10.20
2022-11-01T01:09:36.052Z,10.10
2022-11-01T01:11:39.335Z,10.00
2022-11-01T01:15:46.532Z,10.10
2022-11-01T01:17:51.252Z,10.10
2022-11-01T01:19:54.474Z,10.00
2022-11-01T01:26:08.748Z,9.90
2022-11-01T01:28:12.121Z,9.90
2022-11-01T01:30:16.314Z,9.90
2022-11-01T01:34:24.894Z,9.90
2022-11-01T01:36:28.063Z,9.90
2022-11-01T01:40:35.773Z,10.00
2022-11-01T01:42:40.059Z,9.90
2022-11-01T01:45:15.656Z,9.90
2022-11-01T01:47:23.792Z,9.70
2022-11-01T01:49:28.841Z,9.70
2022-11-01T01:51:32.011Z,9.70
2022-11-01T01:53:42.017Z,9.80
2022-11-01T01:55:51.867Z,9.70
2022-11-01T02:00:00.750Z,9.80
2022-11-01T02:02:04.258Z,9.70
2022-11-01T02:04:12.858Z,9.70
2022-11-01T02:06:19.324Z,9.60
2022-11-01T02:08:27.974Z,9.60
2022-11-01T02:10:33.227Z,9.60
2022-11-01T02:12:38.104Z,9.60
2022-11-01T02:14:43.339Z,9.50
2022-11-01T02:16:56.666Z,9.50
2022-11-01T02:19:12.297Z,9.50
2022-11-01T02:21:45.496Z,9.50
2022-11-01T02:24:04.901Z,9.40
2022-11-01T02:26:31.180Z,9.40
2022-11-01T02:28:49.983Z,9.40
2022-11-01T02:33:16.738Z,9.50
2022-11-01T02:35:26.082Z,9.50
2022-11-01T02:37:35.606Z,9.50
2022-11-01T02:39:43.877Z,9.50
2022-11-01T02:41:52.163Z,9.40
2022-11-01T02:44:00.319Z,9.20
2022-11-01T02:46:25.779Z,9.30
2022-11-01T02:50:39.143Z,9.40
2022-11-01T02:52:42.916Z,9.40
2022-11-01T02:54:50.452Z,9.20
2022-11-01T02:56:53.801Z,9.20
2022-11-01T02:58:57.815Z,9.20
2022-11-01T03:01:01.084Z,9.10
2022-11-01T03:03:16.732Z,9.10
2022-11-01T03:05:29.076Z,9.00
2022-11-01T03:07:32.411Z,9.20
2022-11-01T03:09:36.685Z,9.20
2022-11-01T03:11:50.269Z,9.20
2022-11-01T03:14:01.130Z,9.10
2022-11-01T03:16:10.504Z,9.10
2022-11-01T03:18:19.608Z,9.20
2022-11-01T03:20:47.758Z,9.10
2022-11-01T03:22:55.183Z,9.20
2022-11-01T03:25:05.231Z,9.10
2022-11-01T03:27:13.248Z,9.10
2022-11-01T03:31:24.430Z,9.20
2022-11-01T03:33:28.995Z,9.20
2022-11-01T03:35:38.065Z,9.20
2022-11-01T03:37:45.305Z,9.20
2022-11-01T03:39:52.319Z,9.10
2022-11-01T03:42:01.032Z,9.00
2022-11-01T03:44:04.862Z,9.00
2022-11-01T03:46:08.808Z,9.10
2022-11-01T03:48:12.032Z,9.00
2022-11-01T03:50:16.880Z,8.90
2022-11-01T03:52:21.583Z,8.90
2022-11-01T03:54:24.834Z,8.80
2022-11-01T03:56:28.715Z,8.90
2022-11-01T03:58:42.536Z,8.90
2022-11-01T04:00:47.191Z,8.90
2022-11-01T04:02:50.832Z,8.80
2022-11-01T04:04:53.944Z,8.70
2022-11-01T04:06:57.099Z,8.70
2022-11-01T04:09:01.794Z,8.70
2022-11-01T04:11:05.349Z,8.60
2022-11-01T04:13:09.040Z,8.60
2022-11-01T04:15:30.705Z,8.60
2022-11-01T04:17:47.778Z,8.60
2022-11-01T04:20:08.314Z,8.60
2022-11-01T04:22:11.520Z,8.60
2022-11-01T04:24:21.204Z,8.60
2022-11-01T04:26:25.110Z,8.60
2022-11-01T04:28:28.344Z,8.50
2022-11-01T04:30:31.948Z,8.60
2022-11-01T04:32:35.426Z,8.50
2022-11-01T04:34:44.858Z,8.50
2022-11-01T04:36:48.349Z,8.50
2022-11-01T04:38:52.529Z,8.50
2022-11-01T04:40:57.711Z,8.40
2022-11-01T04:43:01.544Z,8.40
2022-11-01T04:45:06.231Z,8.30
2022-11-01T04:47:09.880Z,8.30
2022-11-01T04:49:13.128Z,8.30
2022-11-01T04:51:16.434Z,8.30
2022-11-01T04:53:19.652Z,8.40
2022-11-01T04:55:22.871Z,8.30
2022-11-01T04:57:27.601Z,8.30
2022-11-01T04:59:30.729Z,8.10
2022-11-01T05:01:35.352Z,8.10
2022-11-01T05:03:41.319Z,8.20
2022-11-01T05:05:44.583Z,8.10
2022-11-01T05:07:47.938Z,8.00
2022-11-01T05:09:51.142Z,8.00
2022-11-01T05:11:54.249Z,8.00
2022-11-01T05:13:59.548Z,8.00
2022-11-01T05:16:21.172Z,8.00
2022-11-01T05:18:24.470Z,8.00
2022-11-01T05:20:28.035Z,7.90
2022-11-01T05:22:31.209Z,7.90
2022-11-01T05:24:34.474Z,7.90
2022-11-01T05:26:37.826Z,7.90
2022-11-01T05:28:40.911Z,7.80
2022-11-01T05:30:45.452Z,7.90
2022-11-01T05:32:48.946Z,7.80
2022-11-01T05:34:52.290Z,7.70
2022-11-01T05:36:56.015Z,7.80
2022-11-01T05:38:59.946Z,7.70
2022-11-01T05:41:03.983Z,7.70
2022-11-01T05:43:07.176Z,7.70
2022-11-01T05:45:11.141Z,7.80
2022-11-01T05:47:17.390Z,7.80
2022-11-01T05:49:22.622Z,7.70
2022-11-01T05:51:26.104Z,7.60
2022-11-01T05:53:29.272Z,7.70
2022-11-01T05:55:32.601Z,7.80
2022-11-01T05:57:35.936Z,7.70
2022-11-01T05:59:39.183Z,7.50
2022-11-01T06:01:42.953Z,7.50
2022-11-01T06:03:51.360Z,7.50
2022-11-01T06:05:54.547Z,7.50
2022-11-01T06:07:58.371Z,7.50
2022-11-01T06:10:01.538Z,7.60
2022-11-01T06:12:05.403Z,7.70
2022-11-01T06:14:11.697Z,7.70
2022-11-01T06:16:14.918Z,7.80
2022-11-01T06:18:18.192Z,7.80
2022-11-01T06:20:22.728Z,7.80
2022-11-01T06:22:26.080Z,7.90
2022-11-01T06:24:29.585Z,7.90
2022-11-01T06:26:32.716Z,8.00
2022-11-01T06:28:36.440Z,8.10
2022-11-01T06:30:40.088Z,8.10
2022-11-01T06:32:43.276Z,8.30
2022-11-01T06:34:46.432Z,8.30
2022-11-01T06:36:53.827Z,8.40
2022-11-01T06:38:56.937Z,8.70
2022-11-01T06:41:00.195Z,8.90
2022-11-01T06:43:05.495Z,8.90
2022-11-01T06:45:09.679Z,8.80
2022-11-01T06:47:13.783Z,8.70
2022-11-01T06:51:22.950Z,8.80
2022-11-01T06:53:27.406Z,8.90
2022-11-01T06:55:31.084Z,9.00
2022-11-01T06:57:34.251Z,8.90
2022-11-01T06:59:37.377Z,9.00
2022-11-01T07:01:40.874Z,9.10
2022-11-01T07:03:44.257Z,9.20
2022-11-01T07:05:49.714Z,9.20
2022-11-01T07:07:52.931Z,9.30
2022-11-01T07:09:57.952Z,9.30
2022-11-01T07:51:23.720Z,15.30
2022-11-01T08:20:28.591Z,14.30
2022-11-01T14:18:00.902Z,19.50
2022-11-01T14:24:35.713Z,18.80
2022-11-01T14:31:15.131Z,18.50
2022-11-01T14:35:28.862Z,18.10
2022-11-01T14:41:55.195Z,17.80
2022-11-01T14:46:13.340Z,17.80
2022-11-01T14:48:24.139Z,17.50
2022-11-01T14:50:32.610Z,17.10
2022-11-01T14:52:41.692Z,17.10
2022-11-01T14:54:51.075Z,17.00
2022-11-01T14:56:55.976Z,16.90
2022-11-01T14:59:12.922Z,16.60
2022-11-01T15:01:18.445Z,16.60
2022-11-01T15:05:27.283Z,16.40
2022-11-01T15:07:33.975Z,16.10
2022-11-01T15:09:38.005Z,16.20
2022-11-01T15:13:47.870Z,15.90
2022-11-01T15:16:02.920Z,16.00
2022-11-01T15:20:15.031Z,15.80
2022-11-01T15:24:25.976Z,16.00
2022-11-01T15:32:53.889Z,15.80
2022-11-01T15:34:58.910Z,15.90
2022-11-01T15:37:12.571Z,15.90
2022-11-01T15:39:21.360Z,15.80
2022-11-01T15:41:28.670Z,15.80
2022-11-01T15:45:40.143Z,15.50
2022-11-01T15:49:54.199Z,15.40
2022-11-01T15:52:01.648Z,15.40
2022-11-01T15:58:20.868Z,15.30
2022-11-01T16:02:35.317Z,15.20
2022-11-01T16:04:44.973Z,15.00
2022-11-01T16:06:52.183Z,15.10
2022-11-01T16:08:59.338Z,15.00
2022-11-01T16:15:22.423Z,14.60
2022-11-01T16:24:25.479Z,14.50
2022-11-01T16:26:29.763Z,14.40
2022-11-01T16:28:40.097Z,14.30
2022-11-01T16:30:46.530Z,14.10
2022-11-01T16:32:49.870Z,14.20
2022-11-01T16:34:55.513Z,14.30
2022-11-01T16:36:58.880Z,14.20
2022-11-01T16:39:02.212Z,14.10
2022-11-01T16:41:07.431Z,13.90
2022-11-01T16:43:10.978Z,13.80
2022-11-01T16:45:14.641Z,13.80
2022-11-01T16:49:24.091Z,13.90
2022-11-01T16:53:33.680Z,13.80
2022-11-01T16:55:39.976Z,13.70
2022-11-01T16:57:43.231Z,13.70
2022-11-01T17:01:51.997Z,13.70
2022-11-01T17:05:59.616Z,13.60
2022-11-01T17:08:04.710Z,13.60
2022-11-01T17:10:18.281Z,13.60
2022-11-01T17:12:21.692Z,13.60
2022-11-01T17:14:26.366Z,13.70
2022-11-01T17:16:29.657Z,13.60
2022-11-01T17:20:41.503Z,13.60
2022-11-01T17:22:45.613Z,13.60
2022-11-01T17:24:51.101Z,13.60
2022-11-01T17:26:57.917Z,13.70
2022-11-01T17:31:05.219Z,13.50
2022-11-01T17:35:12.332Z,13.50
2022-11-01T17:39:21.339Z,13.40
2022-11-01T17:41:25.952Z,13.30
2022-11-01T17:45:33.049Z,13.20
2022-11-01T17:49:40.084Z,13.30
2022-11-01T17:51:43.679Z,13.30
2022-11-01T17:53:47.344Z,13.20
2022-11-01T17:55:57.529Z,13.20
2022-11-01T18:00:07.375Z,13.10
2022-11-01T18:04:15.658Z,13.10
2022-11-01T18:06:19.264Z,13.10
2022-11-01T18:10:37.677Z,12.90
2022-11-01T18:14:56.772Z,12.80
2022-11-01T18:17:08.427Z,12.80
2022-11-01T18:19:44.335Z,12.90
2022-11-01T18:23:57.375Z,12.90
2022-11-01T18:28:13.644Z,12.80
2022-11-01T18:32:31.570Z,13.00
2022-11-01T18:34:42.315Z,12.90
2022-11-01T18:38:59.045Z,12.90
2022-11-01T18:43:09.680Z,12.90
2022-11-01T18:45:26.833Z,12.80
2022-11-01T18:47:35.920Z,12.80
2022-11-01T18:51:44.647Z,12.80
2022-11-01T18:53:56.197Z,12.70
2022-11-01T18:56:23.400Z,12.70
2022-11-01T18:58:30.359Z,12.70
2022-11-01T19:00:35.509Z,12.70
2022-11-01T19:06:50.732Z,12.70
2022-11-01T19:08:57.662Z,12.70
2022-11-01T19:11:02.118Z,12.60
2022-11-01T19:13:13.004Z,12.50
2022-11-01T19:15:23.360Z,12.60
2022-11-01T19:17:30.993Z,12.60
2022-11-01T19:19:36.188Z,12.50
2022-11-01T19:25:50.089Z,12.80
2022-11-01T19:30:00.317Z,12.80
2022-11-01T19:32:05.411Z,12.90
2022-11-01T19:34:18.921Z,13.00
2022-11-01T19:36:23.639Z,13.00
2022-11-01T19:40:34.058Z,12.90
2022-11-01T19:42:37.528Z,13.00
2022-11-01T19:44:40.747Z,13.10
2022-11-01T19:46:44.027Z,13.00
2022-11-01T19:48:47.789Z,13.10
2022-11-01T19:55:01.221Z,13.00
2022-11-01T19:59:17.557Z,13.00
2022-11-01T20:01:29.948Z,13.00
2022-11-01T20:05:40.580Z,12.90
2022-11-01T20:07:45.157Z,12.90
2022-11-01T20:09:49.366Z,12.90
2022-11-01T20:13:56.261Z,12.80
2022-11-01T20:26:20.237Z,13.00
2022-11-01T20:32:31.316Z,12.90
2022-11-01T20:38:42.613Z,12.90
2022-11-01T20:40:47.291Z,12.90
2022-11-01T20:42:50.701Z,13.00
2022-11-01T20:44:53.857Z,13.10
2022-11-01T20:46:57.019Z,13.00
2022-11-01T20:53:09.814Z,13.00
2022-11-01T20:55:14.057Z,12.90
2022-11-01T20:57:27.460Z,13.10
2022-11-01T20:59:31.379Z,13.00
2022-11-01T21:01:34.820Z,13.10
2022-11-01T21:03:38.046Z,13.00
2022-11-01T21:05:41.276Z,12.80
2022-11-01T21:07:47.843Z,12.80
2022-11-01T21:09:52.710Z,12.90
2022-11-01T21:11:56.173Z,12.80
2022-11-01T21:16:09.336Z,12.70
2022-11-01T21:20:37.662Z,12.60
2022-11-01T21:24:47.309Z,12.80
2022-11-01T21:26:55.768Z,12.70
2022-11-01T21:29:04.755Z,12.70
2022-11-01T21:33:36.528Z,12.70
2022-11-01T21:37:44.510Z,12.70
2022-11-01T21:39:47.924Z,12.60
2022-11-01T21:46:01.611Z,12.70
2022-11-01T21:48:19.988Z,12.60
2022-11-01T21:54:34.128Z,12.70
2022-11-01T21:56:37.392Z,12.80
2022-11-01T21:58:40.774Z,12.70
2022-11-01T22:04:52.914Z,12.60
2022-11-01T22:06:56.259Z,12.60
2022-11-01T22:09:02.138Z,12.70
2022-11-01T22:11:05.533Z,12.60
2022-11-01T22:13:09.221Z,12.60
2022-11-01T22:17:17.279Z,12.60
2022-11-01T22:19:21.935Z,12.60
2022-11-01T22:23:28.492Z,12.50
